sensor_id;sensor_type;location;lat;lon;timestamp;temperature;humidity
10911;DHT22;5508;49.150;11.030;2023-03-04T00:00:35;-3.50;99.90
10911;DHT22;5508;49.150;11.030;2023-03-04T00:03:36;-3.60;99.90
10911;DHT22;5508;49.150;11.030;2023-03-04T00:06:37;-3.60;99.90
10911;DHT22;5508;49.150;11.030;2023-03-04T00:09:37;-3.60;99.90
10911;DHT22;5508;49.150;11.030;2023-03-04T00:12:38;-3.60;99.90
10911;DHT22;5508;49.150;11.030;2023-03-04T00:15:38;-3.60;99.90
10911;DHT22;5508;49.150;11.030;2023-03-04T00:18:39;-3.50;99.90
10911;DHT22;5508;49.150;11.030;2023-03-04T00:21:40;-3.60;99.90
10911;DHT22;5508;49.150;11.030;2023-03-04T00:24:40;-3.70;99.90
10911;DHT22;5508;49.150;11.030;2023-03-04T00:27:41;-3.70;99.90
10911;DHT22;5508;49.150;11.030;2023-03-04T00:30:41;-3.70;99.90
10911;DHT22;5508;49.150;11.030;2023-03-04T00:33:42;-3.70;99.90
10911;DHT22;5508;49.150;11.030;2023-03-04T00:36:43;-3.70;99.90
10911;DHT22;5508;49.150;11.030;2023-03-04T00:39:44;-3.70;99.90
10911;DHT22;5508;49.150;11.030;2023-03-04T00:42:44;-3.70;99.90
10911;DHT22;5508;49.150;11.030;2023-03-04T00:45:45;-3.70;99.90
10911;DHT22;5508;49.150;11.030;2023-03-04T00:48:46;-3.70;99.90
10911;DHT22;5508;49.150;11.030;2023-03-04T00:51:47;-3.70;99.90
10911;DHT22;5508;49.150;11.030;2023-03-04T00:54:47;-3.80;99.90
10911;DHT22;5508;49.150;11.030;2023-03-04T00:57:48;-3.80;99.90
10911;DHT22;5508;49.150;11.030;2023-03-04T01:00:48;-3.80;99.90
10911;DHT22;5508;49.150;11.030;2023-03-04T01:03:49;-3.90;99.90
10911;DHT22;5508;49.150;11.030;2023-03-04T01:06:50;-4.00;99.90
10911;DHT22;5508;49.150;11.030;2023-03-04T01:09:50;-4.00;99.90
10911;DHT22;5508;49.150;11.030;2023-03-04T01:12:51;-4.10;99.90
10911;DHT22;5508;49.150;11.030;2023-03-04T01:15:51;-4.20;99.90
10911;DHT22;5508;49.150;11.030;2023-03-04T01:18:52;-4.20;99.90
10911;DHT22;5508;49.150;11.030;2023-03-04T01:21:53;-4.20;99.90
10911;DHT22;5508;49.150;11.030;2023-03-04T01:24:53;-4.20;99.90
10911;DHT22;5508;49.150;11.030;2023-03-04T01:27:54;-4.30;99.90
10911;DHT22;5508;49.150;11.030;2023-03-04T01:30:54;-4.20;99.90
10911;DHT22;5508;49.150;11.030;2023-03-04T01:33:55;-4.30;99.90
10911;DHT22;5508;49.150;11.030;2023-03-04T01:36:55;-4.30;99.90
10911;DHT22;5508;49.150;11.030;2023-03-04T01:39:56;-4.40;99.90
10911;DHT22;5508;49.150;11.030;2023-03-04T01:42:57;-4.40;99.90
10911;DHT22;5508;49.150;11.030;2023-03-04T01:45:58;-4.50;99.90
10911;DHT22;5508;49.150;11.030;2023-03-04T01:48:59;-4.50;99.90
10911;DHT22;5508;49.150;11.030;2023-03-04T01:51:59;-4.30;99.90
10911;DHT22;5508;49.150;11.030;2023-03-04T01:55:00;-4.30;99.90
10911;DHT22;5508;49.150;11.030;2023-03-04T01:58:00;-4.40;99.90
10911;DHT22;5508;49.150;11.030;2023-03-04T02:01:01;-4.40;99.90
10911;DHT22;5508;49.150;11.030;2023-03-04T02:04:02;-4.40;99.90
10911;DHT22;5508;49.150;11.030;2023-03-04T02:07:04;-4.40;99.90
10911;DHT22;5508;49.150;11.030;2023-03-04T02:10:05;-4.50;99.90
10911;DHT22;5508;49.150;11.030;2023-03-04T02:13:06;-4.60;99.90
10911;DHT22;5508;49.150;11.030;2023-03-04T02:16:06;-4.70;99.90
10911;DHT22;5508;49.150;11.030;2023-03-04T02:22:19;-4.70;99.90
10911;DHT22;5508;49.150;11.030;2023-03-04T02:25:30;-4.70;99.90
10911;DHT22;5508;49.150;11.030;2023-03-04T02:28:32;-4.80;99.90
10911;DHT22;5508;49.150;11.030;2023-03-04T02:31:45;-4.70;99.90
10911;DHT22;5508;49.150;11.030;2023-03-04T02:34:48;-4.80;99.90
10911;DHT22;5508;49.150;11.030;2023-03-04T02:37:49;-4.80;99.90
10911;DHT22;5508;49.150;11.030;2023-03-04T02:40:51;-4.90;99.90
10911;DHT22;5508;49.150;11.030;2023-03-04T02:43:54;-4.90;99.90
10911;DHT22;5508;49.150;11.030;2023-03-04T02:46:56;-5.00;99.90
10911;DHT22;5508;49.150;11.030;2023-03-04T02:49:56;-5.00;99.90
10911;DHT22;5508;49.150;11.030;2023-03-04T02:52:57;-5.10;99.90
10911;DHT22;5508;49.150;11.030;2023-03-04T02:55:58;-5.10;99.90
10911;DHT22;5508;49.150;11.030;2023-03-04T02:58:58;-5.10;99.90
10911;DHT22;5508;49.150;11.030;2023-03-04T03:01:59;-5.10;99.90
10911;DHT22;5508;49.150;11.030;2023-03-04T03:05:00;-5.00;99.90
10911;DHT22;5508;49.150;11.030;2023-03-04T03:08:00;-5.00;99.90
10911;DHT22;5508;49.150;11.030;2023-03-04T03:11:01;-5.10;99.90
10911;DHT22;5508;49.150;11.030;2023-03-04T03:14:01;-5.10;99.90
10911;DHT22;5508;49.150;11.030;2023-03-04T03:17:02;-5.20;99.90
10911;DHT22;5508;49.150;11.030;2023-03-04T03:20:03;-5.30;99.90
10911;DHT22;5508;49.150;11.030;2023-03-04T03:23:04;-5.30;99.90
10911;DHT22;5508;49.150;11.030;2023-03-04T03:26:05;-5.40;99.90
10911;DHT22;5508;49.150;11.030;2023-03-04T03:29:05;-5.40;99.90
10911;DHT22;5508;49.150;11.030;2023-03-04T03:32:06;-5.50;99.90
10911;DHT22;5508;49.150;11.030;2023-03-04T03:35:08;-5.50;99.90
10911;DHT22;5508;49.150;11.030;2023-03-04T03:38:09;-5.50;99.90
10911;DHT22;5508;49.150;11.030;2023-03-04T03:41:09;-5.40;99.90
10911;DHT22;5508;49.150;11.030;2023-03-04T03:44:10;-5.50;99.90
10911;DHT22;5508;49.150;11.030;2023-03-04T03:47:10;-5.50;99.90
10911;DHT22;5508;49.150;11.030;2023-03-04T03:50:11;-5.40;99.90
10911;DHT22;5508;49.150;11.030;2023-03-04T03:53:12;-5.30;99.90
10911;DHT22;5508;49.150;11.030;2023-03-04T03:56:12;-5.30;99.90
10911;DHT22;5508;49.150;11.030;2023-03-04T03:59:13;-5.50;99.90
10911;DHT22;5508;49.150;11.030;2023-03-04T04:02:13;-5.60;99.90
10911;DHT22;5508;49.150;11.030;2023-03-04T04:05:14;-5.50;99.90
10911;DHT22;5508;49.150;11.030;2023-03-04T04:08:16;-5.60;99.90
10911;DHT22;5508;49.150;11.030;2023-03-04T04:11:17;-5.70;99.90
10911;DHT22;5508;49.150;11.030;2023-03-04T04:14:17;-5.60;99.90
10911;DHT22;5508;49.150;11.030;2023-03-04T04:17:18;-5.70;99.90
10911;DHT22;5508;49.150;11.030;2023-03-04T04:20:19;-5.70;99.90
10911;DHT22;5508;49.150;11.030;2023-03-04T04:23:19;-5.70;99.90
10911;DHT22;5508;49.150;11.030;2023-03-04T04:26:20;-5.70;99.90
10911;DHT22;5508;49.150;11.030;2023-03-04T04:29:21;-5.80;99.90
10911;DHT22;5508;49.150;11.030;2023-03-04T04:32:22;-5.70;99.90
10911;DHT22;5508;49.150;11.030;2023-03-04T04:35:23;-5.80;99.90
10911;DHT22;5508;49.150;11.030;2023-03-04T04:38:23;-5.80;99.90
10911;DHT22;5508;49.150;11.030;2023-03-04T04:41:30;-5.90;99.90
10911;DHT22;5508;49.150;11.030;2023-03-04T04:44:31;-5.90;99.90
10911;DHT22;5508;49.150;11.030;2023-03-04T04:47:32;-5.90;99.90
10911;DHT22;5508;49.150;11.030;2023-03-04T04:50:32;-6.00;99.90
10911;DHT22;5508;49.150;11.030;2023-03-04T04:53:33;-6.10;99.90
10911;DHT22;5508;49.150;11.030;2023-03-04T04:56:33;-6.10;99.90
10911;DHT22;5508;49.150;11.030;2023-03-04T04:59:34;-6.20;99.90
10911;DHT22;5508;49.150;11.030;2023-03-04T05:02:35;-6.00;99.90
10911;DHT22;5508;49.150;11.030;2023-03-04T05:05:36;-5.90;99.90
10911;DHT22;5508;49.150;11.030;2023-03-04T05:08:37;-5.90;99.90
10911;DHT22;5508;49.150;11.030;2023-03-04T05:11:38;-6.10;99.90
10911;DHT22;5508;49.150;11.030;2023-03-04T05:14:38;-6.20;99.90
10911;DHT22;5508;49.150;11.030;2023-03-04T05:17:39;-6.20;99.90
10911;DHT22;5508;49.150;11.030;2023-03-04T05:20:40;-6.10;99.90
10911;DHT22;5508;49.150;11.030;2023-03-04T05:23:42;-6.10;99.90
10911;DHT22;5508;49.150;11.030;2023-03-04T05:26:43;-6.10;99.90
10911;DHT22;5508;49.150;11.030;2023-03-04T05:29:43;-6.10;99.90
10911;DHT22;5508;49.150;11.030;2023-03-04T05:32:46;-5.90;99.90
10911;DHT22;5508;49.150;11.030;2023-03-04T05:35:47;-5.60;99.90
10911;DHT22;5508;49.150;11.030;2023-03-04T05:38:48;-5.20;99.90
10911;DHT22;5508;49.150;11.030;2023-03-04T05:41:49;-5.10;99.90
10911;DHT22;5508;49.150;11.030;2023-03-04T05:44:49;-4.80;99.90
10911;DHT22;5508;49.150;11.030;2023-03-04T05:47:50;-4.80;99.90
10911;DHT22;5508;49.150;11.030;2023-03-04T05:50:54;-4.70;99.90
10911;DHT22;5508;49.150;11.030;2023-03-04T05:53:55;-4.60;99.90
10911;DHT22;5508;49.150;11.030;2023-03-04T05:56:56;-4.50;99.90
10911;DHT22;5508;49.150;11.030;2023-03-04T05:59:56;-4.40;99.90
10911;DHT22;5508;49.150;11.030;2023-03-04T06:02:57;-4.10;99.90
10911;DHT22;5508;49.150;11.030;2023-03-04T06:05:58;-4.00;99.90
10911;DHT22;5508;49.150;11.030;2023-03-04T06:08:58;-3.90;99.90
10911;DHT22;5508;49.150;11.030;2023-03-04T06:11:59;-3.70;99.90
10911;DHT22;5508;49.150;11.030;2023-03-04T06:15:00;-3.60;99.90
10911;DHT22;5508;49.150;11.030;2023-03-04T06:18:02;-3.60;99.90
10911;DHT22;5508;49.150;11.030;2023-03-04T06:21:03;-3.50;99.90
10911;DHT22;5508;49.150;11.030;2023-03-04T06:24:04;-3.40;99.90
10911;DHT22;5508;49.150;11.030;2023-03-04T06:27:05;-3.30;99.90
10911;DHT22;5508;49.150;11.030;2023-03-04T06:30:06;-3.20;99.90
10911;DHT22;5508;49.150;11.030;2023-03-04T06:33:07;-3.10;99.90
10911;DHT22;5508;49.150;11.030;2023-03-04T06:36:07;-3.10;99.90
10911;DHT22;5508;49.150;11.030;2023-03-04T06:39:08;-3.00;99.90
10911;DHT22;5508;49.150;11.030;2023-03-04T06:42:09;-3.00;99.90
10911;DHT22;5508;49.150;11.030;2023-03-04T06:45:10;-2.90;99.90
10911;DHT22;5508;49.150;11.030;2023-03-04T06:48:11;-2.90;99.90
10911;DHT22;5508;49.150;11.030;2023-03-04T06:51:12;-2.90;99.90
10911;DHT22;5508;49.150;11.030;2023-03-04T06:54:12;-2.80;99.90
10911;DHT22;5508;49.150;11.030;2023-03-04T06:57:13;-2.70;99.90
10911;DHT22;5508;49.150;11.030;2023-03-04T07:00:14;-2.70;99.90
10911;DHT22;5508;49.150;11.030;2023-03-04T07:03:15;-2.70;99.90
10911;DHT22;5508;49.150;11.030;2023-03-04T07:06:17;-2.70;99.90
10911;DHT22;5508;49.150;11.030;2023-03-04T07:09:18;-2.70;99.90
10911;DHT22;5508;49.150;11.030;2023-03-04T07:12:19;-2.70;99.90
10911;DHT22;5508;49.150;11.030;2023-03-04T07:15:19;-2.70;99.90
10911;DHT22;5508;49.150;11.030;2023-03-04T07:18:20;-2.60;99.90
10911;DHT22;5508;49.150;11.030;2023-03-04T07:21:21;-2.60;99.90
10911;DHT22;5508;49.150;11.030;2023-03-04T07:24:21;-2.60;99.90
10911;DHT22;5508;49.150;11.030;2023-03-04T07:27:22;-2.60;99.90
10911;DHT22;5508;49.150;11.030;2023-03-04T07:30:22;-2.60;99.90
10911;DHT22;5508;49.150;11.030;2023-03-04T07:33:23;-2.60;99.90
10911;DHT22;5508;49.150;11.030;2023-03-04T07:36:24;-2.60;99.90
10911;DHT22;5508;49.150;11.030;2023-03-04T07:39:25;-2.50;99.90
10911;DHT22;5508;49.150;11.030;2023-03-04T07:42:26;-2.50;99.90
10911;DHT22;5508;49.150;11.030;2023-03-04T07:45:26;-2.40;99.90
10911;DHT22;5508;49.150;11.030;2023-03-04T07:48:28;-2.40;99.90
10911;DHT22;5508;49.150;11.030;2023-03-04T07:51:28;-2.30;99.90
10911;DHT22;5508;49.150;11.030;2023-03-04T07:54:29;-2.20;99.90
10911;DHT22;5508;49.150;11.030;2023-03-04T07:57:30;-2.30;99.90
10911;DHT22;5508;49.150;11.030;2023-03-04T08:00:30;-2.20;99.90
10911;DHT22;5508;49.150;11.030;2023-03-04T08:03:31;-2.20;99.90
10911;DHT22;5508;49.150;11.030;2023-03-04T08:06:32;-2.10;99.90
10911;DHT22;5508;49.150;11.030;2023-03-04T08:09:33;-1.90;99.90
10911;DHT22;5508;49.150;11.030;2023-03-04T08:12:34;-1.80;99.90
10911;DHT22;5508;49.150;11.030;2023-03-04T08:15:39;-1.60;99.90
10911;DHT22;5508;49.150;11.030;2023-03-04T08:18:46;-1.60;99.90
10911;DHT22;5508;49.150;11.030;2023-03-04T08:21:47;-1.60;99.90
10911;DHT22;5508;49.150;11.030;2023-03-04T08:24:48;-1.40;99.90
10911;DHT22;5508;49.150;11.030;2023-03-04T08:27:48;-1.30;99.90
10911;DHT22;5508;49.150;11.030;2023-03-04T08:30:53;-1.20;99.90
10911;DHT22;5508;49.150;11.030;2023-03-04T08:33:54;-1.30;99.90
10911;DHT22;5508;49.150;11.030;2023-03-04T08:36:56;-1.20;99.90
10911;DHT22;5508;49.150;11.030;2023-03-04T08:39:56;-1.20;99.90
10911;DHT22;5508;49.150;11.030;2023-03-04T08:42:57;-1.00;99.90
10911;DHT22;5508;49.150;11.030;2023-03-04T08:45:58;-1.00;99.70
10911;DHT22;5508;49.150;11.030;2023-03-04T08:48:59;-1.00;99.20
10911;DHT22;5508;49.150;11.030;2023-03-04T08:51:59;-0.90;99.90
10911;DHT22;5508;49.150;11.030;2023-03-04T08:55:00;-0.80;99.40
10911;DHT22;5508;49.150;11.030;2023-03-04T08:58:01;-0.80;97.70
10911;DHT22;5508;49.150;11.030;2023-03-04T09:01:02;-0.80;97.90
10911;DHT22;5508;49.150;11.030;2023-03-04T09:04:04;-0.70;97.90
10911;DHT22;5508;49.150;11.030;2023-03-04T09:07:04;-0.60;96.10
10911;DHT22;5508;49.150;11.030;2023-03-04T09:10:05;-0.50;96.50
10911;DHT22;5508;49.150;11.030;2023-03-04T09:13:06;-0.40;94.80
10911;DHT22;5508;49.150;11.030;2023-03-04T09:16:12;-0.50;93.50
10911;DHT22;5508;49.150;11.030;2023-03-04T09:19:13;-0.40;93.40
10911;DHT22;5508;49.150;11.030;2023-03-04T09:22:13;-0.40;94.70
10911;DHT22;5508;49.150;11.030;2023-03-04T09:25:14;-0.30;94.00
10911;DHT22;5508;49.150;11.030;2023-03-04T09:28:16;-0.40;93.20
10911;DHT22;5508;49.150;11.030;2023-03-04T09:31:17;-0.30;93.00
10911;DHT22;5508;49.150;11.030;2023-03-04T09:34:17;-0.20;93.40
10911;DHT22;5508;49.150;11.030;2023-03-04T09:37:18;-0.20;92.50
10911;DHT22;5508;49.150;11.030;2023-03-04T09:40:25;-0.30;92.40
10911;DHT22;5508;49.150;11.030;2023-03-04T09:43:27;-0.40;92.80
10911;DHT22;5508;49.150;11.030;2023-03-04T09:46:37;-0.20;92.90
10911;DHT22;5508;49.150;11.030;2023-03-04T09:49:42;-0.20;92.00
10911;DHT22;5508;49.150;11.030;2023-03-04T09:56:12;-0.20;91.40
10911;DHT22;5508;49.150;11.030;2023-03-04T09:59:34;-0.10;92.60
10911;DHT22;5508;49.150;11.030;2023-03-04T10:05:59;0.00;90.80
10911;DHT22;5508;49.150;11.030;2023-03-04T10:09:09;-0.10;91.10
10911;DHT22;5508;49.150;11.030;2023-03-04T10:12:16;-0.20;89.20
10911;DHT22;5508;49.150;11.030;2023-03-04T10:15:41;-0.10;90.50
10911;DHT22;5508;49.150;11.030;2023-03-04T10:18:48;-0.10;89.70
10911;DHT22;5508;49.150;11.030;2023-03-04T10:21:51;0.10;90.50
10911;DHT22;5508;49.150;11.030;2023-03-04T10:24:56;0.20;88.60
10911;DHT22;5508;49.150;11.030;2023-03-04T10:28:03;0.00;87.20
10911;DHT22;5508;49.150;11.030;2023-03-04T10:34:11;0.00;87.80
10911;DHT22;5508;49.150;11.030;2023-03-04T10:37:12;0.00;88.00
10911;DHT22;5508;49.150;11.030;2023-03-04T10:40:21;0.00;87.90
10911;DHT22;5508;49.150;11.030;2023-03-04T10:43:22;0.10;88.30
10911;DHT22;5508;49.150;11.030;2023-03-04T10:46:22;0.20;87.00
10911;DHT22;5508;49.150;11.030;2023-03-04T10:49:24;0.00;86.70
10911;DHT22;5508;49.150;11.030;2023-03-04T10:55:43;0.00;86.50
10911;DHT22;5508;49.150;11.030;2023-03-04T10:58:44;0.00;86.90
10911;DHT22;5508;49.150;11.030;2023-03-04T11:01:44;-0.10;86.60
10911;DHT22;5508;49.150;11.030;2023-03-04T11:04:54;-0.10;86.80
10911;DHT22;5508;49.150;11.030;2023-03-04T11:07:58;0.10;87.90
10911;DHT22;5508;49.150;11.030;2023-03-04T11:10:59;0.10;87.50
10911;DHT22;5508;49.150;11.030;2023-03-04T11:14:03;0.20;87.10
10911;DHT22;5508;49.150;11.030;2023-03-04T11:17:28;0.30;87.60
10911;DHT22;5508;49.150;11.030;2023-03-04T11:20:41;0.30;86.40
10911;DHT22;5508;49.150;11.030;2023-03-04T11:27:18;0.50;85.30
10911;DHT22;5508;49.150;11.030;2023-03-04T11:33:35;0.70;85.80
10911;DHT22;5508;49.150;11.030;2023-03-04T11:40:26;0.60;86.40
10911;DHT22;5508;49.150;11.030;2023-03-04T11:43:39;0.60;84.80
10911;DHT22;5508;49.150;11.030;2023-03-04T11:57:08;0.60;83.80
10911;DHT22;5508;49.150;11.030;2023-03-04T12:10:20;0.60;83.40
10911;DHT22;5508;49.150;11.030;2023-03-04T12:20:26;0.70;83.10
10911;DHT22;5508;49.150;11.030;2023-03-04T12:40:49;0.70;82.50
10911;DHT22;5508;49.150;11.030;2023-03-04T12:44:26;0.80;82.70
10911;DHT22;5508;49.150;11.030;2023-03-04T12:54:23;0.70;82.00
10911;DHT22;5508;49.150;11.030;2023-03-04T12:57:27;0.70;82.90
10911;DHT22;5508;49.150;11.030;2023-03-04T13:00:47;0.80;82.70
10911;DHT22;5508;49.150;11.030;2023-03-04T13:10:17;0.80;81.70
10911;DHT22;5508;49.150;11.030;2023-03-04T13:16:40;0.80;82.20
10911;DHT22;5508;49.150;11.030;2023-03-04T13:19:56;0.90;82.50
10911;DHT22;5508;49.150;11.030;2023-03-04T13:26:23;1.00;82.00
10911;DHT22;5508;49.150;11.030;2023-03-04T13:32:37;0.90;82.60
10911;DHT22;5508;49.150;11.030;2023-03-04T13:39:22;0.80;82.30
10911;DHT22;5508;49.150;11.030;2023-03-04T13:42:40;0.80;81.80
10911;DHT22;5508;49.150;11.030;2023-03-04T13:45:41;0.70;82.20
10911;DHT22;5508;49.150;11.030;2023-03-04T13:51:50;0.70;82.60
10911;DHT22;5508;49.150;11.030;2023-03-04T13:58:30;1.00;83.10
10911;DHT22;5508;49.150;11.030;2023-03-04T14:01:33;1.00;81.80
10911;DHT22;5508;49.150;11.030;2023-03-04T14:04:37;1.10;82.00
10911;DHT22;5508;49.150;11.030;2023-03-04T14:07:38;1.00;82.40
10911;DHT22;5508;49.150;11.030;2023-03-04T14:10:39;1.10;82.70
10911;DHT22;5508;49.150;11.030;2023-03-04T14:13:40;1.00;82.00
10911;DHT22;5508;49.150;11.030;2023-03-04T14:16:48;1.00;82.20
10911;DHT22;5508;49.150;11.030;2023-03-04T14:19:50;0.90;83.50
10911;DHT22;5508;49.150;11.030;2023-03-04T14:22:51;0.90;82.50
10911;DHT22;5508;49.150;11.030;2023-03-04T14:26:06;0.90;83.10
10911;DHT22;5508;49.150;11.030;2023-03-04T14:29:27;1.00;82.30
10911;DHT22;5508;49.150;11.030;2023-03-04T14:32:29;1.00;82.30
10911;DHT22;5508;49.150;11.030;2023-03-04T14:35:31;1.00;82.10
10911;DHT22;5508;49.150;11.030;2023-03-04T14:38:33;1.00;83.50
10911;DHT22;5508;49.150;11.030;2023-03-04T14:41:37;0.90;83.20
10911;DHT22;5508;49.150;11.030;2023-03-04T14:44:42;0.90;82.50
10911;DHT22;5508;49.150;11.030;2023-03-04T14:47:45;0.90;83.50
10911;DHT22;5508;49.150;11.030;2023-03-04T14:50:52;0.90;83.10
10911;DHT22;5508;49.150;11.030;2023-03-04T14:53:56;0.90;83.30
10911;DHT22;5508;49.150;11.030;2023-03-04T14:56:59;0.90;83.90
10911;DHT22;5508;49.150;11.030;2023-03-04T15:00:37;0.90;83.00
10911;DHT22;5508;49.150;11.030;2023-03-04T15:03:43;0.80;82.40
10911;DHT22;5508;49.150;11.030;2023-03-04T15:06:50;0.80;82.70
10911;DHT22;5508;49.150;11.030;2023-03-04T15:09:53;0.90;83.40
10911;DHT22;5508;49.150;11.030;2023-03-04T15:12:57;0.80;83.20
10911;DHT22;5508;49.150;11.030;2023-03-04T15:16:00;0.80;82.90
10911;DHT22;5508;49.150;11.030;2023-03-04T15:19:23;0.90;82.50
10911;DHT22;5508;49.150;11.030;2023-03-04T15:22:24;0.90;82.70
10911;DHT22;5508;49.150;11.030;2023-03-04T15:25:26;0.90;84.20
10911;DHT22;5508;49.150;11.030;2023-03-04T15:28:33;0.90;84.40
10911;DHT22;5508;49.150;11.030;2023-03-04T15:31:34;0.90;84.30
10911;DHT22;5508;49.150;11.030;2023-03-04T15:34:34;1.00;84.10
10911;DHT22;5508;49.150;11.030;2023-03-04T15:37:35;0.90;83.30
10911;DHT22;5508;49.150;11.030;2023-03-04T15:40:38;1.00;84.00
10911;DHT22;5508;49.150;11.030;2023-03-04T15:43:41;0.90;85.00
10911;DHT22;5508;49.150;11.030;2023-03-04T15:46:41;1.00;83.60
10911;DHT22;5508;49.150;11.030;2023-03-04T15:49:43;0.90;84.00
10911;DHT22;5508;49.150;11.030;2023-03-04T15:52:47;0.90;84.20
10911;DHT22;5508;49.150;11.030;2023-03-04T15:55:47;0.90;84.30
10911;DHT22;5508;49.150;11.030;2023-03-04T15:59:15;1.00;84.00
10911;DHT22;5508;49.150;11.030;2023-03-04T16:02:22;0.80;84.20
10911;DHT22;5508;49.150;11.030;2023-03-04T16:05:23;0.80;84.30
10911;DHT22;5508;49.150;11.030;2023-03-04T16:08:24;0.90;84.00
10911;DHT22;5508;49.150;11.030;2023-03-04T16:11:26;0.90;83.80
10911;DHT22;5508;49.150;11.030;2023-03-04T16:14:27;0.80;84.20
10911;DHT22;5508;49.150;11.030;2023-03-04T16:17:28;0.80;84.50
10911;DHT22;5508;49.150;11.030;2023-03-04T16:20:29;0.80;84.50
10911;DHT22;5508;49.150;11.030;2023-03-04T16:23:31;0.80;85.00
10911;DHT22;5508;49.150;11.030;2023-03-04T16:26:37;0.80;84.40
10911;DHT22;5508;49.150;11.030;2023-03-04T16:29:37;0.80;84.80
10911;DHT22;5508;49.150;11.030;2023-03-04T16:32:38;0.70;85.10
10911;DHT22;5508;49.150;11.030;2023-03-04T16:35:39;0.70;85.30
10911;DHT22;5508;49.150;11.030;2023-03-04T16:38:39;0.70;85.20
10911;DHT22;5508;49.150;11.030;2023-03-04T16:41:40;0.70;85.00
10911;DHT22;5508;49.150;11.030;2023-03-04T16:44:41;0.70;85.30
10911;DHT22;5508;49.150;11.030;2023-03-04T16:47:42;0.70;85.40
10911;DHT22;5508;49.150;11.030;2023-03-04T16:50:43;0.70;85.60
10911;DHT22;5508;49.150;11.030;2023-03-04T16:53:48;0.60;85.80
10911;DHT22;5508;49.150;11.030;2023-03-04T16:56:50;0.70;85.80
10911;DHT22;5508;49.150;11.030;2023-03-04T16:59:51;0.60;86.20
10911;DHT22;5508;49.150;11.030;2023-03-04T17:02:55;0.60;86.30
10911;DHT22;5508;49.150;11.030;2023-03-04T17:05:57;0.70;86.40
10911;DHT22;5508;49.150;11.030;2023-03-04T17:08:57;0.60;86.40
10911;DHT22;5508;49.150;11.030;2023-03-04T17:11:58;0.60;86.50
10911;DHT22;5508;49.150;11.030;2023-03-04T17:14:59;0.60;86.70
10911;DHT22;5508;49.150;11.030;2023-03-04T17:17:59;0.60;87.00
10911;DHT22;5508;49.150;11.030;2023-03-04T17:21:05;0.60;86.80
10911;DHT22;5508;49.150;11.030;2023-03-04T17:24:06;0.60;87.30
10911;DHT22;5508;49.150;11.030;2023-03-04T17:27:08;0.50;87.80
10911;DHT22;5508;49.150;11.030;2023-03-04T17:30:11;0.60;87.00
10911;DHT22;5508;49.150;11.030;2023-03-04T17:33:12;0.60;87.20
10911;DHT22;5508;49.150;11.030;2023-03-04T17:36:14;0.60;87.20
10911;DHT22;5508;49.150;11.030;2023-03-04T17:39:15;0.50;87.60
10911;DHT22;5508;49.150;11.030;2023-03-04T17:42:15;0.60;87.40
10911;DHT22;5508;49.150;11.030;2023-03-04T17:45:16;0.60;87.10
10911;DHT22;5508;49.150;11.030;2023-03-04T17:48:17;0.60;87.10
10911;DHT22;5508;49.150;11.030;2023-03-04T17:51:17;0.60;87.10
10911;DHT22;5508;49.150;11.030;2023-03-04T17:54:18;0.60;87.50
10911;DHT22;5508;49.150;11.030;2023-03-04T17:57:19;0.60;87.30
10911;DHT22;5508;49.150;11.030;2023-03-04T18:00:20;0.70;87.50
10911;DHT22;5508;49.150;11.030;2023-03-04T18:03:20;0.70;87.50
10911;DHT22;5508;49.150;11.030;2023-03-04T18:06:22;0.70;88.00
10911;DHT22;5508;49.150;11.030;2023-03-04T18:09:24;0.70;88.20
10911;DHT22;5508;49.150;11.030;2023-03-04T18:12:25;0.60;88.70
10911;DHT22;5508;49.150;11.030;2023-03-04T18:15:25;0.60;88.80
10911;DHT22;5508;49.150;11.030;2023-03-04T18:18:26;0.50;89.00
10911;DHT22;5508;49.150;11.030;2023-03-04T18:21:27;0.50;89.40
10911;DHT22;5508;49.150;11.030;2023-03-04T18:24:28;0.50;90.80
10911;DHT22;5508;49.150;11.030;2023-03-04T18:27:29;0.50;89.80
10911;DHT22;5508;49.150;11.030;2023-03-04T18:30:30;0.50;90.00
10911;DHT22;5508;49.150;11.030;2023-03-04T18:33:31;0.50;89.60
10911;DHT22;5508;49.150;11.030;2023-03-04T18:36:32;0.50;89.70
10911;DHT22;5508;49.150;11.030;2023-03-04T18:39:33;0.50;89.60
10911;DHT22;5508;49.150;11.030;2023-03-04T18:42:33;0.60;89.70
10911;DHT22;5508;49.150;11.030;2023-03-04T18:45:34;0.60;88.80
10911;DHT22;5508;49.150;11.030;2023-03-04T18:48:49;0.50;89.40
10911;DHT22;5508;49.150;11.030;2023-03-04T18:51:52;0.60;89.50
10911;DHT22;5508;49.150;11.030;2023-03-04T18:54:52;0.60;89.10
10911;DHT22;5508;49.150;11.030;2023-03-04T18:57:55;0.60;89.50
10911;DHT22;5508;49.150;11.030;2023-03-04T19:00:57;0.60;89.40
10911;DHT22;5508;49.150;11.030;2023-03-04T19:04:00;0.60;90.00
10911;DHT22;5508;49.150;11.030;2023-03-04T19:07:03;0.50;90.40
10911;DHT22;5508;49.150;11.030;2023-03-04T19:10:04;0.50;90.00
10911;DHT22;5508;49.150;11.030;2023-03-04T19:13:05;0.50;90.70
10911;DHT22;5508;49.150;11.030;2023-03-04T19:16:06;0.60;90.00
10911;DHT22;5508;49.150;11.030;2023-03-04T19:19:07;0.60;89.80
10911;DHT22;5508;49.150;11.030;2023-03-04T19:22:07;0.50;89.50
10911;DHT22;5508;49.150;11.030;2023-03-04T19:25:08;0.60;90.30
10911;DHT22;5508;49.150;11.030;2023-03-04T19:28:10;0.60;90.40
10911;DHT22;5508;49.150;11.030;2023-03-04T19:31:11;0.60;89.90
10911;DHT22;5508;49.150;11.030;2023-03-04T19:34:12;0.50;89.80
10911;DHT22;5508;49.150;11.030;2023-03-04T19:37:13;0.50;90.10
10911;DHT22;5508;49.150;11.030;2023-03-04T19:40:14;0.50;90.20
10911;DHT22;5508;49.150;11.030;2023-03-04T19:43:15;0.50;90.90
10911;DHT22;5508;49.150;11.030;2023-03-04T19:46:15;0.60;90.20
10911;DHT22;5508;49.150;11.030;2023-03-04T19:49:16;0.50;89.90
10911;DHT22;5508;49.150;11.030;2023-03-04T19:52:17;0.50;90.10
10911;DHT22;5508;49.150;11.030;2023-03-04T19:55:17;0.50;90.50
10911;DHT22;5508;49.150;11.030;2023-03-04T19:58:19;0.50;90.40
10911;DHT22;5508;49.150;11.030;2023-03-04T20:01:25;0.50;90.20
10911;DHT22;5508;49.150;11.030;2023-03-04T20:04:27;0.50;90.40
10911;DHT22;5508;49.150;11.030;2023-03-04T20:07:27;0.50;90.40
10911;DHT22;5508;49.150;11.030;2023-03-04T20:10:32;0.40;90.20
10911;DHT22;5508;49.150;11.030;2023-03-04T20:13:36;0.50;90.20
10911;DHT22;5508;49.150;11.030;2023-03-04T20:16:36;0.50;90.10
10911;DHT22;5508;49.150;11.030;2023-03-04T20:19:37;0.50;90.10
10911;DHT22;5508;49.150;11.030;2023-03-04T20:22:37;0.50;90.40
10911;DHT22;5508;49.150;11.030;2023-03-04T20:25:38;0.50;90.40
10911;DHT22;5508;49.150;11.030;2023-03-04T20:28:38;0.40;90.10
10911;DHT22;5508;49.150;11.030;2023-03-04T20:31:39;0.50;89.70
10911;DHT22;5508;49.150;11.030;2023-03-04T20:34:40;0.50;89.80
10911;DHT22;5508;49.150;11.030;2023-03-04T20:37:41;0.50;90.00
10911;DHT22;5508;49.150;11.030;2023-03-04T20:40:42;0.40;90.40
10911;DHT22;5508;49.150;11.030;2023-03-04T20:43:43;0.30;90.60
10911;DHT22;5508;49.150;11.030;2023-03-04T20:46:44;0.30;91.20
10911;DHT22;5508;49.150;11.030;2023-03-04T20:49:45;0.30;91.50
10911;DHT22;5508;49.150;11.030;2023-03-04T20:52:46;0.30;91.70
10911;DHT22;5508;49.150;11.030;2023-03-04T20:55:47;0.30;91.60
10911;DHT22;5508;49.150;11.030;2023-03-04T20:58:48;0.30;91.00
10911;DHT22;5508;49.150;11.030;2023-03-04T21:01:49;0.30;91.20
10911;DHT22;5508;49.150;11.030;2023-03-04T21:04:50;0.30;91.40